Time;durP1;ratioP1;P1;durP2;ratioP2;P2;SDS_P1;SDS_P2;PMS_P1;PMS_P2;Temp;Humidity;BMP_temperature;BMP_pressure;BME280_temperature;BME280_humidity;BME280_pressure;Samples;Min_cycle;Max_cycle;Signal;HPM_P1;HPM_P2
2022/06/06 00:00:51;;;;;;;6.80;6.10;;;17.90;99.90;;;;;;5034525;28;20180;-81
2022/06/06 00:03:18;;;;;;;9.00;6.57;;;17.80;99.90;;;;;;5034668;28;20419;-80
2022/06/06 00:05:47;;;;;;;7.20;6.50;;;17.70;99.90;;;;;;5034654;28;20176;-81
2022/06/06 00:08:13;;;;;;;8.57;6.53;;;17.60;99.90;;;;;;5034540;28;20416;-81
2022/06/06 00:10:40;;;;;;;8.33;7.07;;;17.50;99.90;;;;;;5033614;28;20420;-81
2022/06/06 00:13:07;;;;;;;7.53;6.77;;;17.50;99.90;;;;;;5034486;28;20422;-80
2022/06/06 00:15:34;;;;;;;9.13;7.97;;;17.40;99.90;;;;;;5007020;28;20965;-81
2022/06/06 00:17:59;;;;;;;10.03;8.20;;;17.30;99.90;;;;;;5015081;28;20468;-91
2022/06/06 00:20:25;;;;;;;9.67;7.90;;;17.30;99.90;;;;;;4998784;28;20463;-83
2022/06/06 00:22:50;;;;;;;11.33;8.50;;;17.10;99.90;;;;;;5042635;28;20219;-87
2022/06/06 00:25:16;;;;;;;9.63;8.57;;;16.90;99.90;;;;;;5034356;28;20245;-85
2022/06/06 00:27:41;;;;;;;12.03;8.93;;;16.80;99.90;;;;;;5033762;28;20181;-82
2022/06/06 00:30:10;;;;;;;12.80;9.00;;;16.60;99.90;;;;;;5033078;28;20643;-81
2022/06/06 00:35:20;;;;;;;11.13;8.47;;;16.50;99.90;;;;;;5034111;28;20555;-82
2022/06/06 00:37:47;;;;;;;12.63;10.60;;;16.50;99.90;;;;;;5016286;28;20560;-82
2022/06/06 00:40:15;;;;;;;10.40;9.20;;;16.50;99.90;;;;;;5033722;28;20411;-82
2022/06/06 00:42:42;;;;;;;10.50;9.40;;;16.60;99.90;;;;;;5013126;28;20518;-80
2022/06/06 00:45:19;;;;;;;10.53;9.53;;;16.60;99.90;;;;;;5012833;28;20431;-81
2022/06/06 00:47:49;;;;;;;11.27;8.67;;;16.50;99.90;;;;;;5012270;28;20921;-81
2022/06/06 00:50:21;;;;;;;11.43;10.20;;;16.40;99.90;;;;;;5014060;28;20434;-80
2022/06/06 00:52:49;;;;;;;10.27;9.17;;;16.40;99.90;;;;;;5014079;28;20406;-81
2022/06/06 00:55:20;;;;;;;9.80;8.80;;;16.40;99.90;;;;;;5014008;28;20418;-84
2022/06/06 00:57:52;;;;;;;11.03;9.80;;;16.40;99.90;;;;;;5013750;28;20998;-82
2022/06/06 01:00:20;;;;;;;11.03;8.87;;;16.40;99.90;;;;;;5013597;28;20970;-83
2022/06/06 01:02:49;;;;;;;14.27;11.07;;;16.30;99.90;;;;;;5013835;28;20823;-83
2022/06/06 01:05:18;;;;;;;12.30;10.00;;;16.40;99.90;;;;;;5013873;28;20414;-81
2022/06/06 01:07:44;;;;;;;11.37;10.20;;;16.40;99.90;;;;;;5013740;28;20418;-82
2022/06/06 01:10:10;;;;;;;13.93;12.47;;;16.40;99.90;;;;;;5013722;28;20419;-84
2022/06/06 01:12:38;;;;;;;11.63;10.10;;;16.40;99.90;;;;;;5013737;28;20176;-83
2022/06/06 01:15:09;;;;;;;12.93;11.57;;;16.50;99.90;;;;;;5013303;28;20411;-84
2022/06/06 01:17:44;;;;;;;15.87;12.57;;;16.50;99.90;;;;;;4995907;28;20479;-83
2022/06/06 01:20:30;;;;;;;12.47;11.20;;;16.50;99.90;;;;;;5013448;28;20416;-84
2022/06/06 01:22:58;;;;;;;13.83;11.73;;;16.50;99.90;;;;;;5013638;28;20439;-85
2022/06/06 01:25:50;;;;;;;12.30;11.17;;;16.50;99.90;;;;;;5013904;28;20903;-85
2022/06/06 01:28:42;;;;;;;12.63;11.33;;;16.50;99.90;;;;;;5014329;28;20934;-86
2022/06/06 01:31:15;;;;;;;12.63;10.97;;;16.50;99.90;;;;;;5012958;28;20516;-86
2022/06/06 01:33:57;;;;;;;13.33;12.03;;;16.40;99.90;;;;;;4995939;28;20476;-83
2022/06/06 01:36:26;;;;;;;12.90;11.40;;;16.40;99.90;;;;;;4995895;28;20963;-84
2022/06/06 01:38:53;;;;;;;12.40;11.10;;;16.40;99.90;;;;;;5013399;28;20416;-87
2022/06/06 01:41:48;;;;;;;15.17;11.93;;;16.40;99.90;;;;;;5013436;28;20824;-85
2022/06/06 01:44:57;;;;;;;12.17;10.70;;;16.40;99.90;;;;;;5013441;28;20401;-81
2022/06/06 01:47:49;;;;;;;12.57;10.87;;;16.40;99.90;;;;;;4917664;29;20947;-87
2022/06/06 01:50:17;;;;;;;12.00;10.87;;;16.50;99.90;;;;;;4995618;28;20423;-80
2022/06/06 01:52:59;;;;;;;14.10;11.53;;;16.50;99.90;;;;;;5013272;28;20775;-80
2022/06/06 01:55:27;;;;;;;12.97;11.27;;;16.40;99.90;;;;;;5013074;28;20454;-83
2022/06/06 01:57:55;;;;;;;14.00;12.60;;;16.40;99.90;;;;;;5013019;28;20474;-82
2022/06/06 02:00:24;;;;;;;16.20;12.60;;;16.40;99.90;;;;;;5012782;28;20410;-85
2022/06/06 02:02:52;;;;;;;13.17;11.77;;;16.40;99.90;;;;;;5013041;28;20935;-81
2022/06/06 02:05:18;;;;;;;15.70;13.67;;;16.40;99.90;;;;;;5013169;28;20407;-82
2022/06/06 02:07:44;;;;;;;14.90;13.50;;;16.50;99.90;;;;;;5013212;28;20916;-85
2022/06/06 02:10:11;;;;;;;14.30;12.37;;;16.50;99.90;;;;;;5013095;28;20465;-86
2022/06/06 02:12:39;;;;;;;15.83;14.23;;;16.60;99.90;;;;;;5013308;28;20172;-86
2022/06/06 02:15:06;;;;;;;15.80;14.10;;;16.70;99.90;;;;;;4995203;28;20413;-81
2022/06/06 02:17:32;;;;;;;14.53;13.03;;;16.80;99.90;;;;;;5012915;28;21032;-80
2022/06/06 02:19:57;;;;;;;14.30;12.80;;;16.90;99.90;;;;;;5013241;28;20405;-84
2022/06/06 02:22:23;;;;;;;14.37;12.87;;;17.00;99.90;;;;;;5013114;28;20238;-84
2022/06/06 02:24:58;;;;;;;11.93;10.17;;;17.10;99.90;;;;;;5013020;28;20173;-86
2022/06/06 02:27:24;;;;;;;8.83;7.90;;;17.10;99.90;;;;;;5013081;28;20629;-79
2022/06/06 02:29:49;;;;;;;7.00;6.20;;;17.10;99.90;;;;;;4995016;28;20437;-80
2022/06/06 02:32:17;;;;;;;6.23;5.63;;;17.00;99.90;;;;;;5013035;28;20248;-79
2022/06/06 02:34:43;;;;;;;6.23;5.57;;;17.00;99.90;;;;;;5016714;28;20175;-80
2022/06/06 02:37:08;;;;;;;4.77;4.37;;;17.10;99.90;;;;;;5016579;28;20471;-79
2022/06/06 02:39:34;;;;;;;6.17;5.57;;;17.00;99.90;;;;;;4998932;28;20541;-80
2022/06/06 02:41:59;;;;;;;4.63;3.93;;;17.00;99.90;;;;;;5016392;28;20172;-79
2022/06/06 02:44:28;;;;;;;5.27;3.63;;;17.00;99.90;;;;;;5016495;28;20176;-79
2022/06/06 02:46:53;;;;;;;4.43;3.60;;;17.00;99.90;;;;;;5016149;28;20168;-79
2022/06/06 02:49:19;;;;;;;5.07;4.07;;;16.90;99.90;;;;;;4998583;28;20428;-78
2022/06/06 02:51:45;;;;;;;4.70;4.20;;;16.90;99.90;;;;;;5016347;28;20207;-79
2022/06/06 02:54:13;;;;;;;4.57;4.07;;;17.00;99.90;;;;;;5016127;28;20177;-79
2022/06/06 02:56:42;;;;;;;4.50;3.93;;;16.90;99.90;;;;;;5016127;28;20704;-79
2022/06/06 02:59:08;;;;;;;4.70;3.23;;;16.90;99.90;;;;;;5016098;28;20420;-79
2022/06/06 03:01:34;;;;;;;4.27;3.77;;;16.90;99.90;;;;;;5015779;28;20418;-79
2022/06/06 03:04:00;;;;;;;6.13;4.33;;;16.80;99.90;;;;;;4998515;28;20486;-82
2022/06/06 03:06:31;;;;;;;4.47;3.33;;;16.90;99.90;;;;;;5016152;28;20268;-79
2022/06/06 03:08:56;;;;;;;4.97;4.53;;;16.80;99.90;;;;;;5016018;28;20173;-79
2022/06/06 03:12:02;;;;;;;5.20;4.70;;;16.80;99.90;;;;;;5015988;28;20463;-79
2022/06/06 03:14:54;;;;;;;8.93;5.00;;;16.80;99.90;;;;;;5025460;28;20172;-79
2022/06/06 03:20:48;;;;;;;6.27;5.60;;;16.80;99.90;;;;;;5032791;28;20451;-78
2022/06/06 03:23:43;;;;;;;6.20;5.33;;;16.80;99.90;;;;;;5021637;28;20952;-83
2022/06/06 03:26:20;;;;;;;6.47;5.87;;;16.80;99.90;;;;;;5015844;28;20424;-83
2022/06/06 03:29:23;;;;;;;7.80;6.10;;;16.80;99.90;;;;;;5015562;28;20465;-83
2022/06/06 03:32:02;;;;;;;6.40;5.80;;;16.80;99.90;;;;;;5015259;28;20449;-83
2022/06/06 03:34:30;;;;;;;6.70;6.00;;;16.80;99.90;;;;;;5015524;28;20814;-83
2022/06/06 03:37:22;;;;;;;7.77;5.93;;;16.80;99.90;;;;;;5015412;28;20474;-85
2022/06/06 03:40:02;;;;;;;8.20;6.20;;;16.70;99.90;;;;;;5014585;28;20528;-82
2022/06/06 03:42:41;;;;;;;6.93;6.23;;;16.70;99.90;;;;;;5015254;28;20471;-83
2022/06/06 03:45:11;;;;;;;7.40;6.67;;;16.70;99.90;;;;;;4997423;28;20841;-85
2022/06/06 03:47:50;;;;;;;6.90;6.20;;;16.70;99.90;;;;;;4997642;28;20439;-83
2022/06/06 03:50:28;;;;;;;6.37;5.77;;;16.70;99.90;;;;;;5015219;28;20850;-84
2022/06/06 03:53:02;;;;;;;8.43;5.97;;;16.70;99.90;;;;;;5015206;28;20419;-83
2022/06/06 03:55:59;;;;;;;8.30;6.07;;;16.60;99.90;;;;;;5015113;28;20419;-84
2022/06/06 03:58:28;;;;;;;7.10;6.10;;;16.60;99.90;;;;;;5015029;28;20978;-84
2022/06/06 04:00:56;;;;;;;6.50;5.67;;;16.60;99.90;;;;;;5014618;28;20507;-83
2022/06/06 04:03:22;;;;;;;7.80;6.33;;;16.60;99.90;;;;;;5015141;28;20424;-84
2022/06/06 04:05:48;;;;;;;6.53;5.83;;;16.50;99.90;;;;;;5014974;28;20774;-80
2022/06/06 04:08:13;;;;;;;7.20;6.50;;;16.50;99.90;;;;;;5014851;28;20422;-82
2022/06/06 04:10:57;;;;;;;6.90;6.20;;;16.50;99.90;;;;;;5014887;28;20251;-83
2022/06/06 04:13:44;;;;;;;6.80;5.90;;;16.50;99.90;;;;;;5014937;28;20164;-86
2022/06/06 04:16:31;;;;;;;7.10;6.40;;;16.50;99.90;;;;;;5014436;28;20465;-81
2022/06/06 04:19:50;;;;;;;8.37;6.10;;;16.50;99.90;;;;;;5016007;28;20415;-84
2022/06/06 04:22:30;;;;;;;8.33;6.60;;;16.40;99.90;;;;;;4935048;29;20418;-84
2022/06/06 04:25:17;;;;;;;8.43;6.13;;;16.40;99.90;;;;;;5014613;28;20831;-84
2022/06/06 04:28:05;;;;;;;7.80;6.90;;;16.40;99.90;;;;;;5014516;28;20422;-84
2022/06/06 04:30:44;;;;;;;7.23;6.10;;;16.30;99.90;;;;;;5013852;28;20464;-84
2022/06/06 04:33:29;;;;;;;7.13;6.03;;;16.20;99.90;;;;;;5014460;28;20430;-86
2022/06/06 04:35:59;;;;;;;7.40;5.47;;;16.20;99.90;;;;;;5014464;28;20422;-83
2022/06/06 04:38:49;;;;;;;7.00;5.23;;;16.20;99.90;;;;;;5014300;28;20471;-83
2022/06/06 04:41:35;;;;;;;7.50;5.03;;;16.20;99.90;;;;;;5014290;28;20409;-83
2022/06/06 04:44:26;;;;;;;7.67;6.50;;;16.20;99.90;;;;;;5014291;28;20420;-84
2022/06/06 04:46:56;;;;;;;5.80;5.10;;;16.50;99.90;;;;;;5014314;28;20408;-84
2022/06/06 04:49:25;;;;;;;7.10;6.40;;;16.60;99.90;;;;;;4997037;28;20789;-81
2022/06/06 04:51:52;;;;;;;8.70;6.70;;;16.70;99.90;;;;;;5014158;28;20412;-83
2022/06/06 04:54:21;;;;;;;7.07;6.37;;;16.70;99.90;;;;;;5014138;28;20407;-83
2022/06/06 04:56:49;;;;;;;7.43;6.47;;;16.70;99.90;;;;;;5013426;28;20978;-82
2022/06/06 04:59:16;;;;;;;7.50;6.73;;;16.70;99.90;;;;;;5013637;28;20441;-82
2022/06/06 05:01:42;;;;;;;7.53;6.73;;;16.70;99.90;;;;;;5013958;28;20491;-85
2022/06/06 05:04:08;;;;;;;7.87;6.80;;;16.70;99.90;;;;;;5013959;28;20451;-81
2022/06/06 05:06:59;;;;;;;10.60;7.37;;;16.70;99.90;;;;;;4996258;28;20473;-81
2022/06/06 05:10:08;;;;;;;9.53;7.20;;;16.70;99.90;;;;;;4996164;28;20552;-84
2022/06/06 05:12:47;;;;;;;10.97;9.17;;;16.80;99.90;;;;;;5013853;28;20836;-86
2022/06/06 05:15:29;;;;;;;10.10;8.67;;;16.80;99.90;;;;;;5013643;28;20415;-83
2022/06/06 05:18:22;;;;;;;10.00;8.47;;;16.90;99.90;;;;;;5013647;28;20486;-87
2022/06/06 05:21:08;;;;;;;11.07;7.47;;;16.90;99.90;;;;;;5013654;28;20810;-82
2022/06/06 05:23:42;;;;;;;12.20;9.77;;;16.90;99.90;;;;;;4996046;28;20430;-81
2022/06/06 05:26:22;;;;;;;10.00;8.67;;;16.90;99.90;;;;;;5013691;28;20415;-85
2022/06/06 05:29:21;;;;;;;12.23;9.20;;;16.90;99.90;;;;;;4996013;28;20419;-86
2022/06/06 05:32:01;;;;;;;13.23;9.67;;;17.00;99.90;;;;;;5013437;28;20992;-85
2022/06/06 05:34:41;;;;;;;14.83;10.37;;;17.00;99.90;;;;;;5013524;28;20416;-84
2022/06/06 05:37:25;;;;;;;12.17;9.93;;;17.00;99.90;;;;;;4995817;28;20789;-86
2022/06/06 05:40:08;;;;;;;12.90;9.87;;;17.00;99.90;;;;;;4995898;28;20807;-86
2022/06/06 05:43:04;;;;;;;10.57;8.27;;;17.00;99.90;;;;;;5013319;28;20840;-86
2022/06/06 05:45:58;;;;;;;12.47;9.37;;;17.00;99.90;;;;;;4995485;28;20499;-83
2022/06/06 05:48:33;;;;;;;11.83;9.40;;;17.10;99.90;;;;;;5013241;28;20410;-82
2022/06/06 05:51:37;;;;;;;11.80;9.77;;;17.10;99.90;;;;;;5013277;28;20505;-81
2022/06/06 05:54:21;;;;;;;12.43;9.97;;;17.10;99.90;;;;;;5013139;28;20796;-81
2022/06/06 05:57:24;;;;;;;12.23;9.70;;;17.10;99.90;;;;;;5013142;28;20474;-79
2022/06/06 06:00:16;;;;;;;11.10;9.73;;;17.00;99.90;;;;;;4982007;28;20472;-80
2022/06/06 06:03:11;;;;;;;13.93;9.67;;;16.90;99.90;;;;;;4985848;28;20862;-82
2022/06/06 06:05:58;;;;;;;15.17;11.60;;;16.90;99.90;;;;;;5013090;28;20475;-81
2022/06/06 06:08:50;;;;;;;15.53;11.43;;;16.90;99.90;;;;;;4997746;28;20416;-81
2022/06/06 06:11:32;;;;;;;17.87;12.10;;;16.90;99.90;;;;;;5017078;28;20409;-82
2022/06/06 06:14:15;;;;;;;16.50;12.40;;;16.90;99.90;;;;;;5016701;28;20413;-82
2022/06/06 06:16:45;;;;;;;14.50;12.13;;;16.90;99.90;;;;;;5017264;28;20450;-82
2022/06/06 06:19:18;;;;;;;17.33;13.00;;;16.90;99.90;;;;;;5016747;28;20421;-85
2022/06/06 06:21:47;;;;;;;15.00;13.07;;;17.10;99.90;;;;;;4999170;28;20463;-81
2022/06/06 06:24:17;;;;;;;16.17;12.13;;;17.10;99.90;;;;;;5016631;28;20473;-86
2022/06/06 06:26:44;;;;;;;15.80;12.87;;;17.20;99.90;;;;;;5016607;28;20443;-84
2022/06/06 06:29:10;;;;;;;15.70;13.40;;;17.20;99.90;;;;;;5016093;28;20928;-81
2022/06/06 06:31:56;;;;;;;19.30;13.23;;;17.20;99.90;;;;;;4998766;28;20455;-85
2022/06/06 06:34:26;;;;;;;15.00;11.83;;;17.30;99.90;;;;;;5015343;28;20416;-79
2022/06/06 06:37:11;;;;;;;16.13;11.17;;;17.30;99.90;;;;;;5016514;28;20474;-85
2022/06/06 06:40:25;;;;;;;15.40;11.00;;;17.40;99.90;;;;;;5016601;28;20490;-86
2022/06/06 06:43:09;;;;;;;15.30;11.30;;;17.50;99.90;;;;;;4979215;28;20428;-83
2022/06/06 06:45:44;;;;;;;18.10;11.20;;;17.60;99.90;;;;;;5015873;28;20461;-84
2022/06/06 06:48:13;;;;;;;18.80;11.70;;;17.70;99.90;;;;;;5016105;28;20408;-83
2022/06/06 06:50:56;;;;;;;13.80;10.00;;;17.70;99.90;;;;;;5016073;28;20428;-82
2022/06/06 06:53:43;;;;;;;16.50;10.23;;;17.80;99.90;;;;;;5016116;28;20408;-83
2022/06/06 06:56:40;;;;;;;16.73;9.90;;;17.50;99.90;;;;;;5016067;28;20488;-79
2022/06/06 06:59:30;;;;;;;14.53;11.43;;;17.50;99.90;;;;;;4998020;28;20526;-81
2022/06/06 07:11:15;;;;;;;19.00;10.53;;;17.10;99.90;;;;;;5016067;28;20420;-82
2022/06/06 07:13:49;;;;;;;16.27;10.90;;;17.10;99.90;;;;;;5015959;28;20412;-79
2022/06/06 07:16:26;;;;;;;14.60;10.73;;;17.00;99.90;;;;;;5015753;28;20924;-82
2022/06/06 07:19:06;;;;;;;15.97;11.20;;;17.10;99.90;;;;;;4997594;28;20570;-86
2022/06/06 07:21:33;;;;;;;19.03;11.50;;;17.20;99.90;;;;;;4998151;28;20451;-80
2022/06/06 07:24:02;;;;;;;16.17;10.40;;;17.20;99.90;;;;;;5015552;28;20432;-80
2022/06/06 07:26:30;;;;;;;14.07;10.60;;;17.10;99.90;;;;;;5015519;28;20405;-80
2022/06/06 07:28:58;;;;;;;12.97;9.93;;;17.10;99.90;;;;;;5015164;28;20943;-84
2022/06/06 07:31:58;;;;;;;15.20;10.63;;;17.10;99.90;;;;;;4997756;28;20468;-84
2022/06/06 07:34:56;;;;;;;11.63;7.87;;;17.00;99.90;;;;;;5013610;28;20422;-83
2022/06/06 07:37:41;;;;;;;15.67;8.60;;;17.00;99.90;;;;;;5014369;28;20472;-79
2022/06/06 07:40:37;;;;;;;11.17;8.33;;;17.00;99.90;;;;;;5014649;28;20421;-84
2022/06/06 07:43:33;;;;;;;10.83;8.13;;;17.10;99.90;;;;;;5014854;28;20932;-82
2022/06/06 07:46:20;;;;;;;13.30;7.83;;;17.20;99.90;;;;;;5014440;28;20422;-83
2022/06/06 07:48:59;;;;;;;10.50;7.23;;;17.10;99.90;;;;;;5014851;28;20486;-82
2022/06/06 07:51:51;;;;;;;11.37;7.53;;;17.00;99.90;;;;;;5020314;28;20802;-79
2022/06/06 07:54:48;;;;;;;11.77;7.57;;;17.00;99.90;;;;;;5015263;28;20424;-81
2022/06/06 07:57:33;;;;;;;10.90;8.03;;;17.00;99.90;;;;;;5015295;28;20858;-86
2022/06/06 08:00:25;;;;;;;11.97;8.00;;;16.80;99.90;;;;;;5015047;28;20777;-85
2022/06/06 08:02:59;;;;;;;11.13;7.97;;;16.80;99.90;;;;;;5015091;28;20407;-80
2022/06/06 08:05:25;;;;;;;12.27;9.10;;;16.60;99.90;;;;;;5015758;28;20451;-87
2022/06/06 08:08:31;;;;;;;13.60;8.37;;;16.70;99.90;;;;;;5015102;28;20428;-80
2022/06/06 08:11:07;;;;;;;10.13;7.37;;;16.60;99.90;;;;;;5015057;28;20175;-82
2022/06/06 08:14:02;;;;;;;13.20;9.30;;;16.70;99.90;;;;;;5014598;28;20491;-81
2022/06/06 08:16:37;;;;;;;11.47;8.30;;;16.70;99.90;;;;;;5014866;28;20411;-80
2022/06/06 08:19:23;;;;;;;13.73;9.50;;;16.70;99.90;;;;;;5014928;28;20425;-81
2022/06/06 08:21:49;;;;;;;9.77;7.00;;;16.90;99.90;;;;;;4997609;28;20426;-80
2022/06/06 08:24:33;;;;;;;11.40;7.37;;;16.90;99.90;;;;;;4997323;28;20430;-88
2022/06/06 08:27:01;;;;;;;10.20;7.20;;;17.00;99.90;;;;;;5014905;28;20423;-80
2022/06/06 08:29:27;;;;;;;11.80;6.50;;;17.50;99.90;;;;;;5015829;28;20800;-81
2022/06/06 08:31:54;;;;;;;8.13;5.93;;;18.00;99.90;;;;;;5033386;28;20498;-91
2022/06/06 08:34:21;;;;;;;9.10;5.83;;;18.30;72.10;;;;;;5035386;28;20420;-89
2022/06/06 08:37:11;;;;;;;8.43;6.03;;;18.50;99.90;;;;;;5034758;28;20459;-88
2022/06/06 08:40:10;;;;;;;8.27;4.73;;;18.60;99.90;;;;;;5035420;28;20424;-85
2022/06/06 08:42:56;;;;;;;6.60;4.00;;;18.50;1.00;;;;;;5035083;28;20780;-90
2022/06/06 08:45:42;;;;;;;6.00;4.80;;;18.30;1.00;;;;;;5034517;28;20427;-85
2022/06/06 08:48:39;;;;;;;6.47;5.00;;;18.00;52.40;;;;;;5034284;28;20423;-90
2022/06/06 08:51:19;;;;;;;4.83;3.33;;;18.00;32.40;;;;;;5034328;28;20410;-88
2022/06/06 08:54:04;;;;;;;5.93;4.17;;;18.10;1.00;;;;;;5034350;28;20479;-93
2022/06/06 08:56:41;;;;;;;6.60;3.63;;;18.20;21.40;;;;;;5032652;28;20471;-87
2022/06/06 08:59:40;;;;;;;7.00;4.07;;;18.30;1.00;;;;;;5033939;28;20423;-89
2022/06/06 09:02:41;;;;;;;4.60;3.50;;;18.40;1.00;;;;;;5034812;28;20416;-93
2022/06/06 09:05:47;;;;;;;5.40;3.13;;;18.50;1.00;;;;;;5012861;28;20437;-82
2022/06/06 09:08:54;;;;;;;6.37;3.63;;;18.40;1.00;;;;;;5034501;28;20456;-83
2022/06/06 09:11:46;;;;;;;5.10;4.30;;;18.20;99.90;;;;;;5033713;28;20428;-88
2022/06/06 09:14:42;;;;;;;5.90;3.60;;;18.30;1.00;;;;;;5033438;28;20424;-90
2022/06/06 09:17:42;;;;;;;4.80;3.90;;;18.40;1.00;;;;;;5015865;28;20536;-82
2022/06/06 09:20:26;;;;;;;4.87;3.90;;;18.90;1.00;;;;;;5033228;28;20780;-88
2022/06/06 09:23:21;;;;;;;6.17;4.13;;;18.90;1.00;;;;;;5030531;28;20421;-80
2022/06/06 09:26:02;;;;;;;7.13;4.83;;;18.40;1.00;;;;;;5013731;28;21108;-88
2022/06/06 09:28:53;;;;;;;4.90;3.80;;;18.30;1.00;;;;;;4995400;28;20410;-79
2022/06/06 09:31:22;;;;;;;6.33;3.80;;;18.40;85.10;;;;;;5007362;28;20481;-86
2022/06/06 09:34:18;;;;;;;4.30;3.60;;;18.50;1.00;;;;;;5017461;28;20943;-84
2022/06/06 09:37:10;;;;;;;7.10;3.87;;;18.70;1.00;;;;;;5032125;28;20460;-82
2022/06/06 09:39:55;;;;;;;5.63;3.73;;;18.60;1.00;;;;;;5034237;28;20471;-81
2022/06/06 09:42:42;;;;;;;7.13;4.10;;;18.40;2.50;;;;;;5033571;28;20416;-90
2022/06/06 09:45:31;;;;;;;6.60;4.33;;;18.40;1.00;;;;;;5032998;28;20427;-91
2022/06/06 09:48:00;;;;;;;4.67;3.40;;;18.60;1.00;;;;;;5034110;28;20485;-80
2022/06/06 09:50:54;;;;;;;7.30;5.00;;;18.90;1.00;;;;;;5033907;28;20458;-83
2022/06/06 10:00:22;;;;;;;6.17;4.10;;;21.90;99.90;;;;;;5033842;28;20457;-86
2022/06/06 10:03:25;;;;;;;4.50;3.67;;;24.10;99.90;;;;;;5033158;28;20422;-86
2022/06/06 10:06:15;;;;;;;5.40;4.07;;;24.60;99.90;;;;;;5033417;28;20440;-86
2022/06/06 10:09:13;;;;;;;5.77;3.80;;;24.00;99.90;;;;;;5033813;28;20421;-92
2022/06/06 10:12:16;;;;;;;6.37;4.50;;;23.10;99.90;;;;;;5033942;28;20444;-86
2022/06/06 10:15:11;;;;;;;4.50;3.50;;;22.00;1.00;;;;;;5033488;28;20413;-87
2022/06/06 10:18:09;;;;;;;5.67;4.00;;;21.40;1.00;;;;;;5033721;28;20840;-87
2022/06/06 10:20:53;;;;;;;5.80;4.80;;;21.30;99.90;;;;;;5033907;28;20461;-85
2022/06/06 10:23:45;;;;;;;6.00;4.13;;;21.10;1.00;;;;;;5030121;28;20438;-82
2022/06/06 10:26:34;;;;;;;6.40;4.13;;;21.40;1.00;;;;;;5030172;28;20419;-82
2022/06/06 10:32:40;;;;;;;5.30;3.70;;;22.10;1.00;;;;;;5031393;28;20490;-84
2022/06/06 10:35:37;;;;;;;3.90;3.00;;;24.70;99.90;;;;;;5031490;28;20452;-84
2022/06/06 10:38:42;;;;;;;5.27;3.87;;;26.00;99.90;;;;;;5031338;28;20472;-85
2022/06/06 10:41:31;;;;;;;4.63;3.53;;;24.30;99.90;;;;;;5000714;28;20859;-82
2022/06/06 10:44:38;;;;;;;5.97;4.03;;;23.10;99.90;;;;;;5031133;28;20438;-84
2022/06/06 10:47:34;;;;;;;3.63;3.23;;;23.80;99.90;;;;;;5030698;28;20513;-85
2022/06/06 10:50:12;;;;;;;3.50;3.20;;;25.40;99.90;;;;;;5013708;28;20780;-84
2022/06/06 10:52:52;;;;;;;5.30;4.03;;;26.80;99.90;;;;;;5031391;28;20457;-84
2022/06/06 10:55:55;;;;;;;5.03;4.53;;;25.40;99.90;;;;;;5034751;28;20405;-82
2022/06/06 10:58:39;;;;;;;5.03;4.50;;;24.00;99.90;;;;;;5034365;28;20483;-83
2022/06/06 11:01:33;;;;;;;4.20;3.80;;;22.80;99.90;;;;;;5034683;28;20421;-83
2022/06/06 11:04:23;;;;;;;4.53;4.07;;;22.00;1.00;;;;;;5034455;28;20471;-82
2022/06/06 11:07:13;;;;;;;5.37;4.87;;;21.50;99.90;;;;;;5034483;28;20409;-82
2022/06/06 11:09:55;;;;;;;5.53;4.60;;;21.00;1.00;;;;;;5034527;28;20413;-82
2022/06/06 11:12:33;;;;;;;6.40;4.80;;;20.90;1.00;;;;;;5029388;28;20421;-83
2022/06/06 11:15:02;;;;;;;6.80;5.00;;;22.30;1.00;;;;;;5014336;28;20406;-82
2022/06/06 11:17:59;;;;;;;6.20;4.90;;;23.90;1.00;;;;;;5014520;28;21030;-83
2022/06/06 11:21:09;;;;;;;7.70;5.97;;;23.90;99.90;;;;;;5019761;28;20930;-85
2022/06/06 11:23:56;;;;;;;5.80;4.67;;;23.60;99.90;;;;;;5015444;28;20956;-81
2022/06/06 11:27:03;;;;;;;6.30;5.47;;;23.00;99.90;;;;;;5015417;28;20453;-81
2022/06/06 11:29:47;;;;;;;7.33;5.70;;;22.40;1.00;;;;;;5015120;28;20417;-81
2022/06/06 11:32:34;;;;;;;5.33;4.80;;;21.60;69.30;;;;;;5023031;28;20589;-81
2022/06/06 11:35:13;;;;;;;6.77;4.90;;;22.30;99.90;;;;;;5015309;28;20414;-81
2022/06/06 11:38:17;;;;;;;6.20;4.80;;;22.80;1.00;;;;;;5015935;28;20480;-81
2022/06/06 11:41:06;;;;;;;8.93;5.27;;;22.00;20.50;;;;;;5017288;28;20760;-80
2022/06/06 11:44:02;;;;;;;5.87;3.50;;;21.80;99.90;;;;;;5034864;28;20466;-83
2022/06/06 11:47:00;;;;;;;6.20;4.73;;;22.40;1.00;;;;;;5035003;28;20471;-82
2022/06/06 11:49:44;;;;;;;6.07;5.03;;;23.40;99.90;;;;;;5034908;28;20412;-81
2022/06/06 11:52:18;;;;;;;5.90;4.07;;;23.60;1.00;;;;;;5031832;28;20418;-82
2022/06/06 11:54:53;;;;;;;7.13;5.13;;;23.50;99.90;;;;;;5025650;28;20421;-81
2022/06/06 11:57:49;;;;;;;4.63;3.67;;;23.20;99.90;;;;;;5022827;28;20456;-82
2022/06/06 12:00:22;;;;;;;5.03;4.23;;;22.70;99.90;;;;;;5014577;28;20760;-80
2022/06/06 12:03:28;;;;;;;5.43;4.93;;;22.50;1.00;;;;;;5014980;28;20440;-81
2022/06/06 12:06:10;;;;;;;4.57;3.93;;;22.50;99.90;;;;;;5013884;28;20436;-82
2022/06/06 12:09:00;;;;;;;6.10;3.90;;;23.30;99.90;;;;;;5014982;28;20414;-82
2022/06/06 12:11:46;;;;;;;5.10;3.70;;;23.30;99.90;;;;;;5014928;28;20890;-82
2022/06/06 12:14:33;;;;;;;7.30;4.50;;;23.90;99.90;;;;;;5014442;28;20452;-83
2022/06/06 12:17:27;;;;;;;4.37;3.60;;;23.60;99.90;;;;;;5015009;28;20813;-82
2022/06/06 12:20:35;;;;;;;4.33;3.17;;;23.10;99.90;;;;;;4997257;28;20418;-82
2022/06/06 12:23:25;;;;;;;5.67;3.40;;;24.70;99.90;;;;;;5001992;28;20413;-86
2022/06/06 12:26:09;;;;;;;2.90;2.60;;;25.50;99.90;;;;;;5014709;28;20454;-86
2022/06/06 12:28:49;;;;;;;2.90;2.03;;;25.30;99.90;;;;;;4996631;28;20829;-85
2022/06/06 12:31:51;;;;;;;2.80;2.53;;;25.80;99.90;;;;;;5023631;28;20449;-84
2022/06/06 12:34:24;;;;;;;2.93;2.60;;;26.40;99.90;;;;;;5016830;28;20524;-84
2022/06/06 12:37:32;;;;;;;4.10;2.27;;;26.70;81.70;;;;;;5016592;28;20468;-84
2022/06/06 12:40:16;;;;;;;2.80;2.07;;;26.60;61.70;;;;;;5008394;28;20433;-84
2022/06/06 12:42:50;;;;;;;2.77;2.00;;;26.20;66.30;;;;;;5034384;28;20814;-85
2022/06/06 12:45:33;;;;;;;4.40;1.97;;;26.40;50.60;;;;;;5034083;28;20893;-83
2022/06/06 12:48:28;;;;;;;2.03;1.67;;;26.70;57.60;;;;;;5033988;28;20413;-81
2022/06/06 12:51:26;;;;;;;2.10;1.90;;;27.00;37.80;;;;;;5000894;28;20418;-85
2022/06/06 12:54:30;;;;;;;2.20;1.47;;;26.80;41.00;;;;;;5033840;28;20424;-84
2022/06/06 12:56:59;;;;;;;2.00;1.17;;;27.00;40.40;;;;;;4953725;29;20472;-84
2022/06/06 12:59:25;;;;;;;3.10;1.50;;;26.20;34.50;;;;;;5018534;28;20509;-83
2022/06/06 13:02:07;;;;;;;2.03;1.33;;;25.10;18.30;;;;;;5033732;28;20920;-83
2022/06/06 13:04:52;;;;;;;2.97;1.83;;;24.40;13.80;;;;;;5033843;28;20205;-84
2022/06/06 13:07:34;;;;;;;2.30;1.33;;;23.90;18.50;;;;;;5033737;28;20417;-83
2022/06/06 13:10:28;;;;;;;2.07;1.00;;;24.90;27.90;;;;;;5033595;28;20744;-83
2022/06/06 13:13:20;;;;;;;1.60;1.03;;;25.80;24.10;;;;;;5032934;28;20776;-85
2022/06/06 13:16:19;;;;;;;2.23;1.13;;;26.20;21.90;;;;;;5033218;28;20500;-88
2022/06/06 13:19:10;;;;;;;1.50;1.27;;;26.40;21.70;;;;;;5032987;28;20476;-85
2022/06/06 13:22:05;;;;;;;3.77;1.27;;;26.40;23.60;;;;;;5015539;28;20770;-83
2022/06/06 13:24:59;;;;;;;2.60;1.40;;;26.50;30.30;;;;;;5033247;28;20413;-84
2022/06/06 13:27:39;;;;;;;2.93;1.07;;;26.40;29.30;;;;;;5033109;28;20437;-85
2022/06/06 13:30:25;;;;;;;1.60;0.90;;;26.10;20.30;;;;;;5031512;28;20413;-87
2022/06/06 13:33:05;;;;;;;1.53;0.90;;;25.80;14.70;;;;;;5013307;28;20508;-83
2022/06/06 13:36:00;;;;;;;3.10;1.20;;;25.10;19.40;;;;;;5013316;28;20410;-84
2022/06/06 13:38:52;;;;;;;1.80;1.43;;;24.70;24.30;;;;;;5013216;28;20838;-83
2022/06/06 13:41:36;;;;;;;1.60;1.00;;;25.20;32.80;;;;;;5012555;28;20899;-83
2022/06/06 13:44:35;;;;;;;1.80;1.10;;;24.40;22.30;;;;;;5012929;28;20413;-83
2022/06/06 13:47:14;;;;;;;1.23;0.87;;;25.00;22.90;;;;;;5013175;28;20468;-83
2022/06/06 13:49:50;;;;;;;5.07;0.87;;;25.20;21.30;;;;;;5013127;28;20405;-83
2022/06/06 13:52:29;;;;;;;2.10;0.70;;;25.20;10.80;;;;;;5013330;28;20444;-85
2022/06/06 13:54:54;;;;;;;1.77;0.80;;;24.80;7.20;;;;;;5013439;28;20759;-83
2022/06/06 13:57:21;;;;;;;4.30;1.13;;;24.20;18.40;;;;;;4995460;28;20470;-88
2022/06/06 14:00:15;;;;;;;3.10;1.37;;;24.20;9.30;;;;;;5012813;28;20533;-84
2022/06/06 14:03:06;;;;;;;3.13;1.33;;;24.10;6.70;;;;;;4995483;28;20422;-83
2022/06/06 14:06:12;;;;;;;2.00;1.40;;;24.20;6.30;;;;;;5013090;28;20500;-82
2022/06/06 14:08:53;;;;;;;1.83;1.00;;;24.40;4.00;;;;;;5013000;28;20422;-84
2022/06/06 14:11:47;;;;;;;2.10;1.10;;;24.00;1.00;;;;;;4995724;28;21026;-85
2022/06/06 14:14:19;;;;;;;1.73;1.07;;;24.00;1.00;;;;;;4995043;28;20504;-85
2022/06/06 14:16:48;;;;;;;1.80;1.13;;;24.20;1.00;;;;;;4995369;28;20440;-85
2022/06/06 14:19:19;;;;;;;1.40;0.77;;;24.20;1.00;;;;;;4995514;28;20437;-84
2022/06/06 14:21:54;;;;;;;1.80;0.93;;;24.30;12.30;;;;;;5012919;28;20421;-87